sensor_id;sensor_type;location;lat;lon;timestamp;temperature;humidity
18868;DHT22;9563;49.240;9.088;2023-05-10T05:01:59;13.10;99.90
18868;DHT22;9563;49.240;9.088;2023-05-10T05:04:26;13.10;99.90
18868;DHT22;9563;49.240;9.088;2023-05-10T05:06:53;13.10;99.90
18868;DHT22;9563;49.240;9.088;2023-05-10T05:09:20;13.10;99.90
18868;DHT22;9563;49.240;9.088;2023-05-10T05:11:46;13.20;99.90
18868;DHT22;9563;49.240;9.088;2023-05-10T05:14:14;13.30;99.90
18868;DHT22;9563;49.240;9.088;2023-05-10T05:16:40;13.20;99.90
18868;DHT22;9563;49.240;9.088;2023-05-10T05:19:08;13.30;99.90
18868;DHT22;9563;49.240;9.088;2023-05-10T05:21:35;13.20;99.90
18868;DHT22;9563;49.240;9.088;2023-05-10T05:24:02;13.30;99.90
18868;DHT22;9563;49.240;9.088;2023-05-10T05:26:29;13.30;99.90
18868;DHT22;9563;49.240;9.088;2023-05-10T05:28:56;13.30;99.90
18868;DHT22;9563;49.240;9.088;2023-05-10T05:31:23;13.20;99.90
18868;DHT22;9563;49.240;9.088;2023-05-10T05:33:50;13.20;99.90
18868;DHT22;9563;49.240;9.088;2023-05-10T05:36:18;13.20;99.90
18868;DHT22;9563;49.240;9.088;2023-05-10T05:38:45;13.30;99.90
18868;DHT22;9563;49.240;9.088;2023-05-10T05:41:12;13.30;99.90
18868;DHT22;9563;49.240;9.088;2023-05-10T05:43:38;13.30;99.90
18868;DHT22;9563;49.240;9.088;2023-05-10T05:46:05;13.30;99.90
18868;DHT22;9563;49.240;9.088;2023-05-10T05:48:32;13.30;99.90
18868;DHT22;9563;49.240;9.088;2023-05-10T05:50:59;13.40;99.90
18868;DHT22;9563;49.240;9.088;2023-05-10T05:53:27;13.40;99.90
18868;DHT22;9563;49.240;9.088;2023-05-10T05:55:55;13.30;99.90
18868;DHT22;9563;49.240;9.088;2023-05-10T05:58:23;13.50;99.90
18868;DHT22;9563;49.240;9.088;2023-05-10T06:00:50;13.40;99.90
18868;DHT22;9563;49.240;9.088;2023-05-10T06:03:17;13.40;99.90
18868;DHT22;9563;49.240;9.088;2023-05-10T06:05:44;13.40;99.90
18868;DHT22;9563;49.240;9.088;2023-05-10T06:08:11;13.40;99.90
18868;DHT22;9563;49.240;9.088;2023-05-10T06:10:39;13.40;99.90
18868;DHT22;9563;49.240;9.088;2023-05-10T06:13:06;13.40;99.90
18868;DHT22;9563;49.240;9.088;2023-05-10T06:15:33;13.50;99.90
18868;DHT22;9563;49.240;9.088;2023-05-10T06:18:00;13.60;99.90
18868;DHT22;9563;49.240;9.088;2023-05-10T06:20:27;13.60;99.90
18868;DHT22;9563;49.240;9.088;2023-05-10T06:22:53;13.60;99.90
18868;DHT22;9563;49.240;9.088;2023-05-10T06:25:20;13.70;99.90
18868;DHT22;9563;49.240;9.088;2023-05-10T06:27:48;13.70;99.90
18868;DHT22;9563;49.240;9.088;2023-05-10T06:30:16;13.60;99.90
18868;DHT22;9563;49.240;9.088;2023-05-10T06:32:43;13.70;99.90
18868;DHT22;9563;49.240;9.088;2023-05-10T06:35:10;13.80;99.90
18868;DHT22;9563;49.240;9.088;2023-05-10T06:37:37;13.80;99.90
18868;DHT22;9563;49.240;9.088;2023-05-10T06:40:06;13.80;99.90
18868;DHT22;9563;49.240;9.088;2023-05-10T06:42:33;13.80;99.90
18868;DHT22;9563;49.240;9.088;2023-05-10T06:45:01;13.70;99.90
18868;DHT22;9563;49.240;9.088;2023-05-10T06:47:28;13.70;99.90
18868;DHT22;9563;49.240;9.088;2023-05-10T06:49:55;13.60;99.90
18868;DHT22;9563;49.240;9.088;2023-05-10T06:52:22;13.60;99.90
18868;DHT22;9563;49.240;9.088;2023-05-10T06:54:49;13.60;99.90
18868;DHT22;9563;49.240;9.088;2023-05-10T06:57:16;13.60;99.90
18868;DHT22;9563;49.240;9.088;2023-05-10T06:59:43;13.70;99.90
18868;DHT22;9563;49.240;9.088;2023-05-10T07:02:12;13.60;99.90
18868;DHT22;9563;49.240;9.088;2023-05-10T07:04:40;13.70;99.90
18868;DHT22;9563;49.240;9.088;2023-05-10T07:07:07;13.70;99.90
18868;DHT22;9563;49.240;9.088;2023-05-10T07:09:34;13.80;99.90
18868;DHT22;9563;49.240;9.088;2023-05-10T07:12:01;13.80;99.90
18868;DHT22;9563;49.240;9.088;2023-05-10T07:14:28;13.90;99.90
18868;DHT22;9563;49.240;9.088;2023-05-10T07:16:55;13.90;99.90
18868;DHT22;9563;49.240;9.088;2023-05-10T07:19:23;13.90;99.90
18868;DHT22;9563;49.240;9.088;2023-05-10T07:21:50;13.90;99.90
18868;DHT22;9563;49.240;9.088;2023-05-10T07:24:19;14.00;99.90
18868;DHT22;9563;49.240;9.088;2023-05-10T07:26:53;14.00;99.90
18868;DHT22;9563;49.240;9.088;2023-05-10T07:29:20;14.00;99.90
18868;DHT22;9563;49.240;9.088;2023-05-10T07:31:47;14.10;99.90
18868;DHT22;9563;49.240;9.088;2023-05-10T07:34:14;14.10;99.90
18868;DHT22;9563;49.240;9.088;2023-05-10T07:36:42;14.00;99.90
18868;DHT22;9563;49.240;9.088;2023-05-10T07:39:09;13.90;99.90
18868;DHT22;9563;49.240;9.088;2023-05-10T07:41:36;13.80;99.90
18868;DHT22;9563;49.240;9.088;2023-05-10T07:44:04;13.70;99.90
18868;DHT22;9563;49.240;9.088;2023-05-10T07:46:31;13.60;99.90
18868;DHT22;9563;49.240;9.088;2023-05-10T07:48:58;13.70;99.90
18868;DHT22;9563;49.240;9.088;2023-05-10T07:51:25;13.70;99.90
18868;DHT22;9563;49.240;9.088;2023-05-10T07:53:54;13.70;99.90
18868;DHT22;9563;49.240;9.088;2023-05-10T07:56:24;13.80;99.90
18868;DHT22;9563;49.240;9.088;2023-05-10T07:58:52;13.90;99.90
18868;DHT22;9563;49.240;9.088;2023-05-10T08:01:20;13.90;99.90
18868;DHT22;9563;49.240;9.088;2023-05-10T08:03:47;13.90;99.90
18868;DHT22;9563;49.240;9.088;2023-05-10T08:06:14;14.10;99.90
18868;DHT22;9563;49.240;9.088;2023-05-10T08:08:41;14.30;99.90
18868;DHT22;9563;49.240;9.088;2023-05-10T08:11:09;14.50;99.90
18868;DHT22;9563;49.240;9.088;2023-05-10T08:13:36;14.60;99.90
18868;DHT22;9563;49.240;9.088;2023-05-10T08:16:03;14.50;99.90
18868;DHT22;9563;49.240;9.088;2023-05-10T08:18:30;14.50;99.90
18868;DHT22;9563;49.240;9.088;2023-05-10T08:20:57;14.50;99.90
18868;DHT22;9563;49.240;9.088;2023-05-10T08:23:24;14.50;99.90
18868;DHT22;9563;49.240;9.088;2023-05-10T08:25:51;14.50;99.90
18868;DHT22;9563;49.240;9.088;2023-05-10T08:28:19;14.60;99.90
18868;DHT22;9563;49.240;9.088;2023-05-10T08:30:47;14.60;99.90
18868;DHT22;9563;49.240;9.088;2023-05-10T08:33:13;14.70;99.90
18868;DHT22;9563;49.240;9.088;2023-05-10T08:35:40;14.80;99.90
18868;DHT22;9563;49.240;9.088;2023-05-10T08:38:11;14.90;99.90
18868;DHT22;9563;49.240;9.088;2023-05-10T08:40:38;14.90;99.90
18868;DHT22;9563;49.240;9.088;2023-05-10T08:43:09;14.90;99.90
18868;DHT22;9563;49.240;9.088;2023-05-10T08:45:40;14.90;99.90
18868;DHT22;9563;49.240;9.088;2023-05-10T08:48:08;14.80;99.90
18868;DHT22;9563;49.240;9.088;2023-05-10T08:50:36;14.80;99.90
18868;DHT22;9563;49.240;9.088;2023-05-10T08:53:06;14.80;99.90
18868;DHT22;9563;49.240;9.088;2023-05-10T08:55:33;15.00;99.90
18868;DHT22;9563;49.240;9.088;2023-05-10T08:58:02;15.00;99.90
18868;DHT22;9563;49.240;9.088;2023-05-10T09:00:30;15.00;99.90
18868;DHT22;9563;49.240;9.088;2023-05-10T09:02:59;15.10;99.90
18868;DHT22;9563;49.240;9.088;2023-05-10T09:05:26;15.10;99.90
18868;DHT22;9563;49.240;9.088;2023-05-10T09:07:53;15.10;99.90
18868;DHT22;9563;49.240;9.088;2023-05-10T09:10:21;15.20;99.90
18868;DHT22;9563;49.240;9.088;2023-05-10T09:12:48;15.20;99.90
18868;DHT22;9563;49.240;9.088;2023-05-10T09:15:16;15.30;99.90
18868;DHT22;9563;49.240;9.088;2023-05-10T09:17:44;15.30;99.90
18868;DHT22;9563;49.240;9.088;2023-05-10T09:20:13;15.50;99.90
18868;DHT22;9563;49.240;9.088;2023-05-10T09:22:43;15.60;99.90
18868;DHT22;9563;49.240;9.088;2023-05-10T09:25:12;15.60;99.90
18868;DHT22;9563;49.240;9.088;2023-05-10T09:27:39;15.80;99.90
18868;DHT22;9563;49.240;9.088;2023-05-10T09:30:07;15.60;99.90
18868;DHT22;9563;49.240;9.088;2023-05-10T09:32:39;15.50;99.90
18868;DHT22;9563;49.240;9.088;2023-05-10T09:35:07;15.30;99.90
18868;DHT22;9563;49.240;9.088;2023-05-10T09:37:36;15.30;99.90
18868;DHT22;9563;49.240;9.088;2023-05-10T09:40:06;15.50;99.90
18868;DHT22;9563;49.240;9.088;2023-05-10T09:42:34;15.70;99.90
18868;DHT22;9563;49.240;9.088;2023-05-10T09:45:03;15.90;99.90
18868;DHT22;9563;49.240;9.088;2023-05-10T09:47:32;16.10;99.90
18868;DHT22;9563;49.240;9.088;2023-05-10T09:49:59;16.30;99.90
18868;DHT22;9563;49.240;9.088;2023-05-10T09:52:30;16.20;99.90
18868;DHT22;9563;49.240;9.088;2023-05-10T09:54:59;16.30;99.90
18868;DHT22;9563;49.240;9.088;2023-05-10T09:57:25;16.20;99.90
18868;DHT22;9563;49.240;9.088;2023-05-10T09:59:52;16.40;99.90
18868;DHT22;9563;49.240;9.088;2023-05-10T10:02:20;16.30;99.90
18868;DHT22;9563;49.240;9.088;2023-05-10T10:04:49;16.40;99.90
18868;DHT22;9563;49.240;9.088;2023-05-10T10:07:22;16.60;99.90
18868;DHT22;9563;49.240;9.088;2023-05-10T10:09:51;17.00;99.90
18868;DHT22;9563;49.240;9.088;2023-05-10T10:12:19;16.80;99.90
18868;DHT22;9563;49.240;9.088;2023-05-10T10:14:46;17.00;99.90
18868;DHT22;9563;49.240;9.088;2023-05-10T10:17:15;16.80;99.90
18868;DHT22;9563;49.240;9.088;2023-05-10T10:19:42;16.50;99.90
18868;DHT22;9563;49.240;9.088;2023-05-10T10:22:09;16.40;99.90
18868;DHT22;9563;49.240;9.088;2023-05-10T10:24:37;16.40;99.90
18868;DHT22;9563;49.240;9.088;2023-05-10T10:27:12;16.30;99.90
18868;DHT22;9563;49.240;9.088;2023-05-10T10:29:49;16.40;99.90
18868;DHT22;9563;49.240;9.088;2023-05-10T10:32:24;16.70;99.90
18868;DHT22;9563;49.240;9.088;2023-05-10T10:34:54;17.30;99.90
18868;DHT22;9563;49.240;9.088;2023-05-10T10:37:21;17.50;99.90
18868;DHT22;9563;49.240;9.088;2023-05-10T10:39:48;17.10;99.90
18868;DHT22;9563;49.240;9.088;2023-05-10T10:42:45;17.00;99.90
18868;DHT22;9563;49.240;9.088;2023-05-10T10:45:13;16.90;99.90
18868;DHT22;9563;49.240;9.088;2023-05-10T10:47:40;16.90;99.90
18868;DHT22;9563;49.240;9.088;2023-05-10T10:50:11;16.80;99.90
18868;DHT22;9563;49.240;9.088;2023-05-10T10:52:38;16.60;99.90
18868;DHT22;9563;49.240;9.088;2023-05-10T10:55:07;16.40;99.90
18868;DHT22;9563;49.240;9.088;2023-05-10T10:57:44;16.40;99.90
18868;DHT22;9563;49.240;9.088;2023-05-10T11:00:29;16.30;99.90
18868;DHT22;9563;49.240;9.088;2023-05-10T11:02:59;16.30;99.90
18868;DHT22;9563;49.240;9.088;2023-05-10T11:05:37;16.40;99.90
18868;DHT22;9563;49.240;9.088;2023-05-10T11:08:13;16.50;99.90
18868;DHT22;9563;49.240;9.088;2023-05-10T11:11:02;16.60;99.90
18868;DHT22;9563;49.240;9.088;2023-05-10T11:13:31;16.40;99.90
18868;DHT22;9563;49.240;9.088;2023-05-10T11:16:10;15.90;99.90
18868;DHT22;9563;49.240;9.088;2023-05-10T11:18:37;15.60;99.90
18868;DHT22;9563;49.240;9.088;2023-05-10T11:21:04;15.20;99.90
18868;DHT22;9563;49.240;9.088;2023-05-10T11:23:32;14.90;99.90
18868;DHT22;9563;49.240;9.088;2023-05-10T11:25:59;14.60;99.90
18868;DHT22;9563;49.240;9.088;2023-05-10T11:28:27;14.50;99.90
18868;DHT22;9563;49.240;9.088;2023-05-10T11:30:54;14.40;99.90
18868;DHT22;9563;49.240;9.088;2023-05-10T11:33:23;14.30;99.90
18868;DHT22;9563;49.240;9.088;2023-05-10T11:35:50;14.30;99.90
18868;DHT22;9563;49.240;9.088;2023-05-10T11:38:17;14.30;99.90
18868;DHT22;9563;49.240;9.088;2023-05-10T11:40:44;14.30;99.90
18868;DHT22;9563;49.240;9.088;2023-05-10T11:43:12;14.20;99.90
18868;DHT22;9563;49.240;9.088;2023-05-10T11:45:40;14.20;99.90
18868;DHT22;9563;49.240;9.088;2023-05-10T11:48:10;14.20;99.90
18868;DHT22;9563;49.240;9.088;2023-05-10T11:50:39;14.20;99.90
18868;DHT22;9563;49.240;9.088;2023-05-10T11:53:06;14.30;99.90
18868;DHT22;9563;49.240;9.088;2023-05-10T11:55:34;14.30;99.90
18868;DHT22;9563;49.240;9.088;2023-05-10T11:58:02;14.40;99.90
18868;DHT22;9563;49.240;9.088;2023-05-10T12:00:30;14.50;99.90
18868;DHT22;9563;49.240;9.088;2023-05-10T12:02:57;14.60;99.90
18868;DHT22;9563;49.240;9.088;2023-05-10T12:05:25;14.70;99.90
18868;DHT22;9563;49.240;9.088;2023-05-10T12:08:11;14.90;99.90
18868;DHT22;9563;49.240;9.088;2023-05-10T12:10:38;15.00;99.90
18868;DHT22;9563;49.240;9.088;2023-05-10T12:13:05;15.30;99.90
18868;DHT22;9563;49.240;9.088;2023-05-10T12:15:37;15.40;99.90
18868;DHT22;9563;49.240;9.088;2023-05-10T12:18:04;15.70;99.90
18868;DHT22;9563;49.240;9.088;2023-05-10T12:20:30;15.70;99.90
18868;DHT22;9563;49.240;9.088;2023-05-10T12:22:59;15.60;99.90
18868;DHT22;9563;49.240;9.088;2023-05-10T12:25:30;15.50;99.90
18868;DHT22;9563;49.240;9.088;2023-05-10T12:27:59;15.50;99.90
18868;DHT22;9563;49.240;9.088;2023-05-10T12:30:28;15.10;99.90
18868;DHT22;9563;49.240;9.088;2023-05-10T12:33:08;15.00;99.90
18868;DHT22;9563;49.240;9.088;2023-05-10T12:35:46;14.90;99.90
18868;DHT22;9563;49.240;9.088;2023-05-10T12:38:28;15.00;99.90
18868;DHT22;9563;49.240;9.088;2023-05-10T12:40:57;15.00;99.90
18868;DHT22;9563;49.240;9.088;2023-05-10T12:43:24;15.00;99.90
18868;DHT22;9563;49.240;9.088;2023-05-10T12:45:51;15.00;99.90
18868;DHT22;9563;49.240;9.088;2023-05-10T12:48:18;15.10;99.90
18868;DHT22;9563;49.240;9.088;2023-05-10T12:50:45;15.30;99.90
18868;DHT22;9563;49.240;9.088;2023-05-10T12:53:13;15.40;99.90
18868;DHT22;9563;49.240;9.088;2023-05-10T12:55:44;15.60;99.90
18868;DHT22;9563;49.240;9.088;2023-05-10T12:58:11;15.80;99.90
18868;DHT22;9563;49.240;9.088;2023-05-10T13:00:38;15.90;99.90
18868;DHT22;9563;49.240;9.088;2023-05-10T13:03:05;16.10;99.90
18868;DHT22;9563;49.240;9.088;2023-05-10T13:05:33;16.10;99.90
18868;DHT22;9563;49.240;9.088;2023-05-10T13:08:00;16.30;99.90
18868;DHT22;9563;49.240;9.088;2023-05-10T13:10:30;16.50;99.90
18868;DHT22;9563;49.240;9.088;2023-05-10T13:12:59;16.60;99.90
18868;DHT22;9563;49.240;9.088;2023-05-10T13:15:26;16.70;99.90
18868;DHT22;9563;49.240;9.088;2023-05-10T13:17:54;16.80;99.90
18868;DHT22;9563;49.240;9.088;2023-05-10T13:20:21;16.60;99.90
18868;DHT22;9563;49.240;9.088;2023-05-10T13:22:48;16.50;99.90
18868;DHT22;9563;49.240;9.088;2023-05-10T13:25:15;16.20;99.90
18868;DHT22;9563;49.240;9.088;2023-05-10T13:27:42;16.00;99.90
18868;DHT22;9563;49.240;9.088;2023-05-10T13:30:11;16.00;99.90
18868;DHT22;9563;49.240;9.088;2023-05-10T13:32:38;15.90;99.90
18868;DHT22;9563;49.240;9.088;2023-05-10T13:35:06;15.90;99.90
18868;DHT22;9563;49.240;9.088;2023-05-10T13:37:33;15.90;99.90
18868;DHT22;9563;49.240;9.088;2023-05-10T13:40:03;16.00;99.90
18868;DHT22;9563;49.240;9.088;2023-05-10T13:42:30;16.10;99.90
18868;DHT22;9563;49.240;9.088;2023-05-10T13:44:59;16.30;99.90
18868;DHT22;9563;49.240;9.088;2023-05-10T13:47:28;16.40;99.90
18868;DHT22;9563;49.240;9.088;2023-05-10T13:49:59;16.50;99.90
18868;DHT22;9563;49.240;9.088;2023-05-10T13:52:26;16.60;99.90
18868;DHT22;9563;49.240;9.088;2023-05-10T13:54:53;16.50;99.90
18868;DHT22;9563;49.240;9.088;2023-05-10T13:57:25;16.60;99.90
18868;DHT22;9563;49.240;9.088;2023-05-10T13:59:57;16.70;99.90
18868;DHT22;9563;49.240;9.088;2023-05-10T14:02:24;16.60;99.90
18868;DHT22;9563;49.240;9.088;2023-05-10T14:04:57;16.70;99.90
18868;DHT22;9563;49.240;9.088;2023-05-10T14:07:24;16.90;99.90
18868;DHT22;9563;49.240;9.088;2023-05-10T14:09:51;17.10;99.90
18868;DHT22;9563;49.240;9.088;2023-05-10T14:12:18;17.10;99.90
18868;DHT22;9563;49.240;9.088;2023-05-10T14:14:45;17.20;99.90
18868;DHT22;9563;49.240;9.088;2023-05-10T14:17:12;17.30;99.90
18868;DHT22;9563;49.240;9.088;2023-05-10T14:19:39;17.20;99.90
18868;DHT22;9563;49.240;9.088;2023-05-10T14:22:07;17.10;99.90
18868;DHT22;9563;49.240;9.088;2023-05-10T14:24:38;17.10;99.90
18868;DHT22;9563;49.240;9.088;2023-05-10T14:27:05;17.10;99.90
18868;DHT22;9563;49.240;9.088;2023-05-10T14:29:32;17.10;99.90
18868;DHT22;9563;49.240;9.088;2023-05-10T14:31:59;17.00;99.90
18868;DHT22;9563;49.240;9.088;2023-05-10T14:34:27;17.00;99.90
18868;DHT22;9563;49.240;9.088;2023-05-10T14:36:54;17.10;99.90
18868;DHT22;9563;49.240;9.088;2023-05-10T14:39:23;17.00;99.90
18868;DHT22;9563;49.240;9.088;2023-05-10T14:41:50;17.20;99.90
18868;DHT22;9563;49.240;9.088;2023-05-10T14:44:18;17.20;99.90
18868;DHT22;9563;49.240;9.088;2023-05-10T14:46:45;17.20;99.90
18868;DHT22;9563;49.240;9.088;2023-05-10T14:49:12;17.00;99.90
18868;DHT22;9563;49.240;9.088;2023-05-10T14:51:40;16.90;99.90
18868;DHT22;9563;49.240;9.088;2023-05-10T14:54:07;16.90;99.90
18868;DHT22;9563;49.240;9.088;2023-05-10T14:56:36;16.90;99.90
18868;DHT22;9563;49.240;9.088;2023-05-10T14:59:15;16.80;99.90
18868;DHT22;9563;49.240;9.088;2023-05-10T15:01:42;16.80;99.90
18868;DHT22;9563;49.240;9.088;2023-05-10T15:04:09;16.80;99.90
18868;DHT22;9563;49.240;9.088;2023-05-10T15:06:38;16.80;99.90
18868;DHT22;9563;49.240;9.088;2023-05-10T15:09:05;16.80;99.90
18868;DHT22;9563;49.240;9.088;2023-05-10T15:11:37;16.80;99.90
18868;DHT22;9563;49.240;9.088;2023-05-10T15:14:04;16.80;99.90
18868;DHT22;9563;49.240;9.088;2023-05-10T15:16:31;17.00;99.90
18868;DHT22;9563;49.240;9.088;2023-05-10T15:18:58;17.00;99.90
18868;DHT22;9563;49.240;9.088;2023-05-10T15:21:25;17.00;99.90
18868;DHT22;9563;49.240;9.088;2023-05-10T15:23:53;17.10;99.90
18868;DHT22;9563;49.240;9.088;2023-05-10T15:26:20;17.10;99.90
18868;DHT22;9563;49.240;9.088;2023-05-10T15:28:49;17.20;99.90
18868;DHT22;9563;49.240;9.088;2023-05-10T15:31:16;17.20;99.90
18868;DHT22;9563;49.240;9.088;2023-05-10T15:33:43;17.20;99.90
18868;DHT22;9563;49.240;9.088;2023-05-10T15:36:10;17.10;99.90
18868;DHT22;9563;49.240;9.088;2023-05-10T15:38:37;17.10;99.90
18868;DHT22;9563;49.240;9.088;2023-05-10T15:41:04;17.10;99.90
18868;DHT22;9563;49.240;9.088;2023-05-10T15:43:31;17.00;99.90
18868;DHT22;9563;49.240;9.088;2023-05-10T15:46:00;16.80;99.90
18868;DHT22;9563;49.240;9.088;2023-05-10T15:48:27;16.80;99.90
18868;DHT22;9563;49.240;9.088;2023-05-10T15:50:56;16.70;99.90
18868;DHT22;9563;49.240;9.088;2023-05-10T15:53:23;16.80;99.90
18868;DHT22;9563;49.240;9.088;2023-05-10T15:55:53;16.80;99.90
18868;DHT22;9563;49.240;9.088;2023-05-10T15:58:21;16.80;99.90
18868;DHT22;9563;49.240;9.088;2023-05-10T16:00:48;16.90;99.90
18868;DHT22;9563;49.240;9.088;2023-05-10T16:03:17;16.90;99.90
18868;DHT22;9563;49.240;9.088;2023-05-10T16:05:44;16.80;99.90
18868;DHT22;9563;49.240;9.088;2023-05-10T16:08:11;16.70;99.90
18868;DHT22;9563;49.240;9.088;2023-05-10T16:10:38;16.60;99.90
18868;DHT22;9563;49.240;9.088;2023-05-10T16:13:06;16.50;99.90
18868;DHT22;9563;49.240;9.088;2023-05-10T16:15:33;16.50;99.90
18868;DHT22;9563;49.240;9.088;2023-05-10T16:18:00;16.60;99.90
18868;DHT22;9563;49.240;9.088;2023-05-10T16:20:29;16.70;99.90
18868;DHT22;9563;49.240;9.088;2023-05-10T16:22:56;16.80;99.90
18868;DHT22;9563;49.240;9.088;2023-05-10T16:25:27;16.70;99.90
18868;DHT22;9563;49.240;9.088;2023-05-10T16:27:54;16.60;99.90
18868;DHT22;9563;49.240;9.088;2023-05-10T16:30:24;16.80;99.90
18868;DHT22;9563;49.240;9.088;2023-05-10T16:32:54;16.80;99.90
18868;DHT22;9563;49.240;9.088;2023-05-10T16:35:22;16.70;99.90
18868;DHT22;9563;49.240;9.088;2023-05-10T16:37:50;16.60;99.90
18868;DHT22;9563;49.240;9.088;2023-05-10T16:40:18;16.60;99.90
18868;DHT22;9563;49.240;9.088;2023-05-10T16:42:45;16.60;99.90
18868;DHT22;9563;49.240;9.088;2023-05-10T16:45:12;16.50;99.90
18868;DHT22;9563;49.240;9.088;2023-05-10T16:47:40;16.40;99.90
18868;DHT22;9563;49.240;9.088;2023-05-10T16:50:11;16.40;99.90
18868;DHT22;9563;49.240;9.088;2023-05-10T16:52:39;16.40;99.90
18868;DHT22;9563;49.240;9.088;2023-05-10T16:55:08;16.30;99.90
18868;DHT22;9563;49.240;9.088;2023-05-10T16:57:36;16.20;99.90
18868;DHT22;9563;49.240;9.088;2023-05-10T17:00:07;16.20;99.90
18868;DHT22;9563;49.240;9.088;2023-05-10T17:02:38;16.10;99.90
18868;DHT22;9563;49.240;9.088;2023-05-10T17:05:06;16.10;99.90
18868;DHT22;9563;49.240;9.088;2023-05-10T17:07:34;16.00;99.90
18868;DHT22;9563;49.240;9.088;2023-05-10T17:10:01;16.00;99.90
18868;DHT22;9563;49.240;9.088;2023-05-10T17:12:30;16.00;99.90
18868;DHT22;9563;49.240;9.088;2023-05-10T17:15:00;16.00;99.90
18868;DHT22;9563;49.240;9.088;2023-05-10T17:17:30;15.90;99.90
18868;DHT22;9563;49.240;9.088;2023-05-10T17:19:57;15.80;99.90
18868;DHT22;9563;49.240;9.088;2023-05-10T17:22:25;15.80;99.90
18868;DHT22;9563;49.240;9.088;2023-05-10T17:24:52;15.80;99.90
18868;DHT22;9563;49.240;9.088;2023-05-10T17:27:20;15.80;99.90
18868;DHT22;9563;49.240;9.088;2023-05-10T17:29:49;15.80;99.90
18868;DHT22;9563;49.240;9.088;2023-05-10T17:32:21;15.80;99.90
18868;DHT22;9563;49.240;9.088;2023-05-10T17:34:49;15.80;99.90
18868;DHT22;9563;49.240;9.088;2023-05-10T17:37:16;15.70;99.90
18868;DHT22;9563;49.240;9.088;2023-05-10T17:39:44;15.70;99.90
18868;DHT22;9563;49.240;9.088;2023-05-10T17:42:11;15.70;99.90
18868;DHT22;9563;49.240;9.088;2023-05-10T17:44:43;15.60;99.90
18868;DHT22;9563;49.240;9.088;2023-05-10T17:47:12;15.60;99.90
18868;DHT22;9563;49.240;9.088;2023-05-10T17:49:39;15.60;99.90
18868;DHT22;9563;49.240;9.088;2023-05-10T17:52:07;15.60;99.90
18868;DHT22;9563;49.240;9.088;2023-05-10T17:54:34;15.50;99.90
18868;DHT22;9563;49.240;9.088;2023-05-10T17:57:01;15.40;99.90
18868;DHT22;9563;49.240;9.088;2023-05-10T17:59:28;15.40;99.90
18868;DHT22;9563;49.240;9.088;2023-05-10T18:01:58;15.40;99.90
18868;DHT22;9563;49.240;9.088;2023-05-10T18:04:29;15.40;99.90
18868;DHT22;9563;49.240;9.088;2023-05-10T18:06:57;15.30;99.90
18868;DHT22;9563;49.240;9.088;2023-05-10T18:09:29;15.30;99.90
18868;DHT22;9563;49.240;9.088;2023-05-10T18:11:58;15.20;99.90
18868;DHT22;9563;49.240;9.088;2023-05-10T18:14:26;15.10;99.90
18868;DHT22;9563;49.240;9.088;2023-05-10T18:16:55;15.00;99.90
18868;DHT22;9563;49.240;9.088;2023-05-10T18:19:23;15.00;99.90
18868;DHT22;9563;49.240;9.088;2023-05-10T18:21:53;14.90;99.90
18868;DHT22;9563;49.240;9.088;2023-05-10T18:24:20;14.80;99.90
18868;DHT22;9563;49.240;9.088;2023-05-10T18:26:48;14.70;99.90
18868;DHT22;9563;49.240;9.088;2023-05-10T18:29:15;14.70;99.90
18868;DHT22;9563;49.240;9.088;2023-05-10T18:31:43;14.60;99.90
18868;DHT22;9563;49.240;9.088;2023-05-10T18:34:10;14.60;99.90
18868;DHT22;9563;49.240;9.088;2023-05-10T18:36:37;14.50;99.90
18868;DHT22;9563;49.240;9.088;2023-05-10T18:39:09;14.40;99.90
18868;DHT22;9563;49.240;9.088;2023-05-10T18:41:37;14.30;99.90
18868;DHT22;9563;49.240;9.088;2023-05-10T18:44:05;14.30;99.90
18868;DHT22;9563;49.240;9.088;2023-05-10T18:46:32;14.20;99.90
18868;DHT22;9563;49.240;9.088;2023-05-10T18:49:00;14.30;99.90
18868;DHT22;9563;49.240;9.088;2023-05-10T18:51:28;14.10;99.90
18868;DHT22;9563;49.240;9.088;2023-05-10T18:53:56;14.10;99.90
18868;DHT22;9563;49.240;9.088;2023-05-10T18:56:25;14.10;99.90
18868;DHT22;9563;49.240;9.088;2023-05-10T18:58:52;14.00;99.90
18868;DHT22;9563;49.240;9.088;2023-05-10T19:01:20;14.00;99.90
18868;DHT22;9563;49.240;9.088;2023-05-10T19:03:47;13.90;99.90
18868;DHT22;9563;49.240;9.088;2023-05-10T19:06:15;13.80;99.90
18868;DHT22;9563;49.240;9.088;2023-05-10T19:08:42;13.90;99.90
18868;DHT22;9563;49.240;9.088;2023-05-10T19:11:09;13.90;99.90
18868;DHT22;9563;49.240;9.088;2023-05-10T19:13:37;13.90;99.90
18868;DHT22;9563;49.240;9.088;2023-05-10T19:16:08;13.80;99.90
18868;DHT22;9563;49.240;9.088;2023-05-10T19:18:36;13.80;99.90
18868;DHT22;9563;49.240;9.088;2023-05-10T19:21:04;13.80;99.90
18868;DHT22;9563;49.240;9.088;2023-05-10T19:23:32;13.70;99.90
18868;DHT22;9563;49.240;9.088;2023-05-10T19:25:59;13.70;99.90
18868;DHT22;9563;49.240;9.088;2023-05-10T19:28:26;13.70;99.90
18868;DHT22;9563;49.240;9.088;2023-05-10T19:30:55;13.70;99.90
18868;DHT22;9563;49.240;9.088;2023-05-10T19:33:22;13.60;99.90
18868;DHT22;9563;49.240;9.088;2023-05-10T19:35:49;13.60;99.90
18868;DHT22;9563;49.240;9.088;2023-05-10T19:38:19;13.60;99.90
18868;DHT22;9563;49.240;9.088;2023-05-10T19:40:46;13.60;99.90
18868;DHT22;9563;49.240;9.088;2023-05-10T19:43:14;13.60;99.90
18868;DHT22;9563;49.240;9.088;2023-05-10T19:45:41;13.50;99.90
18868;DHT22;9563;49.240;9.088;2023-05-10T19:48:10;13.50;99.90
18868;DHT22;9563;49.240;9.088;2023-05-10T19:50:37;13.40;99.90
18868;DHT22;9563;49.240;9.088;2023-05-10T19:53:04;13.40;99.90
18868;DHT22;9563;49.240;9.088;2023-05-10T19:55:31;13.40;99.90
18868;DHT22;9563;49.240;9.088;2023-05-10T19:58:00;13.30;99.90
18868;DHT22;9563;49.240;9.088;2023-05-10T20:00:27;13.30;99.90
18868;DHT22;9563;49.240;9.088;2023-05-10T20:02:54;13.30;99.90
18868;DHT22;9563;49.240;9.088;2023-05-10T20:05:22;13.20;99.90
18868;DHT22;9563;49.240;9.088;2023-05-10T20:07:50;13.20;99.90
18868;DHT22;9563;49.240;9.088;2023-05-10T20:10:17;13.20;99.90
18868;DHT22;9563;49.240;9.088;2023-05-10T20:12:45;13.20;99.90
18868;DHT22;9563;49.240;9.088;2023-05-10T20:15:16;13.20;99.90
18868;DHT22;9563;49.240;9.088;2023-05-10T20:17:44;13.20;99.90
18868;DHT22;9563;49.240;9.088;2023-05-10T20:20:12;13.20;99.90
18868;DHT22;9563;49.240;9.088;2023-05-10T20:22:41;13.20;99.90
18868;DHT22;9563;49.240;9.088;2023-05-10T20:25:09;13.20;99.90
18868;DHT22;9563;49.240;9.088;2023-05-10T20:27:36;13.10;99.90
18868;DHT22;9563;49.240;9.088;2023-05-10T20:30:05;13.20;99.90
18868;DHT22;9563;49.240;9.088;2023-05-10T20:32:33;13.20;99.90
18868;DHT22;9563;49.240;9.088;2023-05-10T20:35:01;13.20;99.90
18868;DHT22;9563;49.240;9.088;2023-05-10T20:37:28;13.10;99.90
18868;DHT22;9563;49.240;9.088;2023-05-10T20:39:57;13.10;99.90
18868;DHT22;9563;49.240;9.088;2023-05-10T20:42:24;13.10;99.90
18868;DHT22;9563;49.240;9.088;2023-05-10T20:44:51;13.10;99.90
18868;DHT22;9563;49.240;9.088;2023-05-10T20:47:18;13.00;99.90
18868;DHT22;9563;49.240;9.088;2023-05-10T20:49:47;13.00;99.90
18868;DHT22;9563;49.240;9.088;2023-05-10T20:52:14;12.90;99.90